New Albin, Iowa
Current Conditions -  °F | °C
As of 8:14 PM on Saturday 20 Dec 2014 (Local Time) from KY51 Reporting Station
Overcast Overcast  
Wind Chill: 23°   Ceiling: 900
Heat Index: 29°   Visibility: 4mi
Dew Point: 29°   Wind: 6mph
Humidity: 100%   Direction: 140°SE
Pressure: 30.16"   Gusts: NA
Location:  43.5°N, 91.29°W
Report Text: KY51 210214Z AUTO 14005KT 4SM BKN009 OVC023 M01/M01 A3016 RMK AO1 T10151015
Loading
Personal Weather Stations






























Interactive Weather Map New forecast layout! Learn more

10-Day Weather Forecast

Advertisements
Track Severe Weather on mobile